Hinesville, GA (31313)

1:52 AM EST on December 06, 2016 (GMT -0500)
Elim / Davenport Acres - Long County | | Change Station

Elev 89 ft 31.79 °N, 81.69 °W | Updated 16 seconds ago

Overcast
Overcast
59.0 °F
Feels Like 59.0 °F
N
0.0
Wind Variable Wind from ESE
Gusts 0.0 mph

Today
High -- | Low -- °F
--% Chance of Precip.
Yesterday
High -- | Low -- °F
Precip. -- in
Pressure 29.81 in
Visibility 10.0 miles
Clouds Overcast 500 ft
Dew Point 59 °F
Humidity 100%
Rainfall 0.00 in
Snow Depth Not available.
7:13 AM 5:22 PM
Waxing Crescent, 39% visible
SPECI KLHW 060651Z AUTO 00000KT 10SM OVC005 15/14 A2981 RMK AO2 RAE46DZB46E51 OVC V BKN $
Pressure 29.81 in
Visibility 10.0 miles
Clouds Overcast 500 ft
Dew Point 59 °F
Humidity 100%
Rainfall 0.00 in
Snow Depth Not available.
7:13 AM 5:22 PM
Waxing Crescent, 39% visible
SPECI KLHW 060651Z AUTO 00000KT 10SM OVC005 15/14 A2981 RMK AO2 RAE46DZB46E51 OVC V BKN $

10-Day Weather Forecast

Almanac

Astronomy

Dec. 06, 2016 Rise Set
Actual Time
Civil Twilight
Nautical Twilight
Astronomical Twilight
Moon
Length of Visible Light
Length of Day
Tomorrow will be .
, % of the Moon is Illuminated

Today's Extremes

State Highs State Lows

Community

WunderPhotos

Upload Photos

1,955,932 photos uploaded!

WunderBlog® & News

Nearby

Air Quality

  Air Quality AQ Index Pollutant
Not available.

Snow Depth

Station Depth Elevation

Earthquake Activity

City Distance Mag. Time & Date
Minimum magnitude displayed is 2.5.

Coastal Water Temperatures

Place Temperature

Stations

Nearby Weather Stations

Station Location Temp. Windchill Dew Point Humidity Wind Precip. Elev Updated Type
                   

Watches & Warnings

There are currently no watches in effect.